Arbovale, West Virginia
Current Conditions -  °F | °C
As of 1:51 PM on Friday 21 Nov 2014 (Local Time) from KEKN Reporting Station
Clear Clear  
Wind Chill: -6°   Ceiling: Unl
Heat Index: -2°   Visibility: 10mi
Dew Point: -13°   Wind: 8mph
Humidity: 41%   Direction: 240°WSW
Pressure: 30.41"   Gusts: NA
Location:  38.44°N, 79.82°W
Report Text: KEKN 211851Z AUTO 24007KT 10SM CLR M02/M13 A3041 RMK AO2 SLP328 T10171133 TSNO
Loading
Personal Weather Stations






























Interactive Weather Map New forecast layout! Learn more

10-Day Weather Forecast

Advertisements
Track Severe Weather on mobile